Flight Track Log - Related Links

Times and Time Zones

All times are in EDT time to prevent confusion due to time zone crossing. See the N487SR flight status page for this flight to view local times or setup timezone preferences in your user account.

Time Position Orientation Groundspeed Altitude Reporting Facility
EDT Latitude Longitude Course Direction KTS MPH feet Rate Location/Type
Fri 01:10:21 PM 40.0822 -91.2639 343° North 140 161 3,400  Level Kansas City Center
Fri 01:11:23 PM 40.1147 -91.2783 341° North 129 148 4,000 532 Climbing Kansas City Center
Fri 01:12:25 PM 40.1464 -91.2931 340° North 124 143 4,500 484 Climbing Kansas City Center
Fri 01:13:27 PM 40.1831 -91.3083 342° North 120 138 5,000 242 Climbing Kansas City Center
Fri 01:14:00 PM 40.1512 -91.2732 341° North  Level FlightAware Approximate
Fri 01:14:29 PM 40.2142 -91.3242 339° North 119 137 5,000  Level Kansas City Center
Fri 01:15:31 PM 40.2514 -91.3397 342° North 130 150 5,000 -48 Level Kansas City Center
Fri 01:16:33 PM 40.2892 -91.3561 342° North 139 160 4,900  Descending Kansas City Center
Fri 01:17:35 PM 40.3317 -91.3758 341° North 138 159 5,000 48 Climbing Kansas City Center
Fri 01:18:37 PM 40.3681 -91.3911 342° North 137 158 5,000  Level Kansas City Center
Fri 01:19:40 PM 40.4039 -91.4075 341° North 139 160 5,000 -48 Level Kansas City Center
Fri 01:20:42 PM 40.4406 -91.4236 342° North 139 160 4,900 -48 Descending Kansas City Center
Fri 01:21:44 PM 40.4756 -91.4406 340° North 137 158 4,900  Level Kansas City Center
Fri 01:22:46 PM 40.5181 -91.4589 342° North 134 154 4,900  Level Kansas City Center
Fri 01:23:48 PM 40.5567 -91.4744 343° North 141 162 4,900 48 Level Kansas City Center
Fri 01:24:50 PM 40.5939 -91.4925 340° North 144 166 5,000 48 Climbing Kansas City Center
Fri 01:25:52 PM 40.6317 -91.5072 344° North 144 166 5,000  Level Chicago Center
Fri 01:26:54 PM 40.6667 -91.5236 340° North 140 161 5,000 145 Level Chicago Center
Fri 01:27:56 PM 40.7067 -91.5436 339° North 133 153 5,300 339 Climbing Chicago Center
Fri 01:28:58 PM 40.7350 -91.5561 342° North 118 136 5,700 339 Climbing Chicago Center
Fri 01:30:00 PM 40.7644 -91.5694 341° North 113 130 6,000 145 Climbing Chicago Center
Fri 01:31:02 PM 40.7942 -91.5828 341° North 114 131 6,000  Level Chicago Center
Fri 01:32:04 PM 40.8289 -91.5978 342° North 124 143 6,000  Level Chicago Center
Fri 01:33:07 PM 40.8714 -91.6164 342° North 130 150 6,000  Level Chicago Center
Fri 01:34:09 PM 40.9058 -91.6325 341° North 132 152 6,000  Level Chicago Center
Fri 01:35:11 PM 40.9394 -91.6481 341° North 131 151 6,000  Level Chicago Center
Fri 01:36:13 PM 40.9767 -91.6650 341° North 136 157 6,000  Level Chicago Center
Fri 01:37:15 PM 41.0186 -91.6847 340° North 135 155 6,000  Level Chicago Center
Fri 01:38:17 PM 41.0525 -91.7008 340° North 133 153 6,000  Level Chicago Center
Fri 01:39:19 PM 41.0867 -91.7150 343° North 131 151 6,000  Level Chicago Center
Fri 01:40:21 PM 41.1217 -91.7317 340° North 134 154 6,000  Level Chicago Center
Fri 01:41:23 PM 41.1569 -91.7483 340° North 136 157 6,000  Level Chicago Center
Fri 01:42:25 PM 41.1997 -91.7672 342° North 137 158 6,000  Level Chicago Center
Fri 01:43:28 PM 41.2350 -91.7822 342° North 136 157 6,000  Level Chicago Center
Fri 01:44:30 PM 41.2694 -91.7992 340° North 135 155 6,000  Level Chicago Center
Fri 01:45:32 PM 41.3044 -91.8147 342° North 136 157 6,000  Level Chicago Center
Fri 01:46:34 PM 41.3481 -91.8342 341° North 138 159 6,000  Level Chicago Center
Fri 01:47:36 PM 41.3819 -91.8481 343° North 132 152 6,000  Level Chicago Center
Fri 01:48:38 PM 41.4161 -91.8642 341° North 132 152 6,000  Level Chicago Center
Fri 01:49:40 PM 41.4492 -91.8811 339° North 129 148 6,000  Level Chicago Center
Fri 01:50:42 PM 41.4822 -91.8950 343° North 127 146 6,000  Level Chicago Center
Fri 01:51:44 PM 41.5244 -91.9136 342° North 132 152 6,000  Level Chicago Center
Fri 01:52:46 PM 41.5589 -91.9314 339° North 134 154 6,000  Level Chicago Center
Fri 01:53:49 PM 41.5931 -91.9481 340° North 133 153 6,000  Level Chicago Center
Fri 01:54:51 PM 41.6272 -91.9608 344° North 131 151 6,000  Level Chicago Center
Fri 01:55:53 PM 41.6603 -91.9772 340° North 130 150 6,000  Level Chicago Center
Fri 01:56:55 PM 41.7022 -91.9964 341° North 132 152 6,000  Level Chicago Center
Fri 01:57:57 PM 41.7383 -92.0119 342° North 135 155 6,000  Level Chicago Center
Fri 01:58:59 PM 41.7725 -92.0286 340° North 134 154 6,000  Level Chicago Center
Fri 02:00:05 PM 41.8139 -92.0483 340° North 132 152 6,000  Level Chicago Center
Fri 02:01:07 PM 41.8472 -92.0633 341° North 131 151 6,000  Level Chicago Center
Fri 02:02:09 PM 41.8814 -92.0781 342° North 129 148 6,000  Level Chicago Center
Fri 02:03:11 PM 41.9156 -92.0936 341° North 131 151 6,000  Level Chicago Center
Fri 02:04:13 PM 41.9506 -92.1097 341° North 132 152 6,000  Level Chicago Center
Fri 02:05:15 PM 41.9919 -92.1300 340° North 132 152 6,000  Level Chicago Center
Fri 02:06:17 PM 42.0264 -92.1475 339° North 133 153 6,000  Level Chicago Center
Fri 02:07:19 PM 42.0622 -92.1636 342° North 134 154 6,000 -48 Level Chicago Center
Fri 02:08:21 PM 42.0967 -92.1797 341° North 134 154 5,900 -192 Descending Chicago Center
Fri 02:09:24 PM 42.1328 -92.1944 343° North 135 155 5,600 -288 Descending Chicago Center
Fri 02:10:26 PM 42.1761 -92.2167 339° North 137 158 5,300 -290 Descending Chicago Center
Fri 02:11:28 PM 42.2117 -92.2344 340° North 137 158 5,000 -290 Descending Chicago Center
Fri 02:12:30 PM 42.2486 -92.2506 342° North 138 159 4,700 -290 Descending Chicago Center
Fri 02:13:32 PM 42.2853 -92.2678 341° North 139 160 4,400 -387 Descending Chicago Center
Fri 02:14:34 PM 42.3244 -92.2778 349° North 142 163 3,900 -435 Descending Chicago Center
Fri 02:15:36 PM 42.3694 -92.2867 352° North 141 162 3,500 -435 Descending Chicago Center
Fri 02:16:38 PM 42.4056 -92.2950 350° North 137 158 3,000 -435 Descending Chicago Center
Fri 02:17:40 PM 42.4428 -92.3053 348° North 136 157 2,600 -435 Descending Chicago Center
Fri 02:18:42 PM 42.4792 -92.3175 346° North 136 157 2,100 -339 Descending Chicago Center
Fri 02:19:44 PM 42.5117 -92.3289 346° North 131 151 1,900 -288 Descending Chicago Center
Fri 02:20:47 PM 42.5339 -92.3569 317° Northwest 109 125 1,500 -240 Descending Chicago Center
Fri 02:21:49 PM 42.5481 -92.3869 303° West 106 122 1,400 -97 Descending Chicago Center
Fri 02:23:00 PM 42.5500 -92.4000 340° North  Level FlightAware Approximate
Fri 02:30:00 PM 42.5571 -92.4003 340° North  Level Estimated
Fri 02:31:00 PM 42.5500 -92.4000 340° North  Level FlightAware Approximate

Login

Don't have an account? Register now (free) for customized features, flight alerts, and more!